PWSweather.com
Personal Weather Stations
Station Observations
KMAMEDFI2
Medfield, MA 02052

Medfield, MA 02052

Lat: 42.1900822, Lon: -71.3296889

Elevation: 138

Station Type: Rainwise WS MK-III

http://www.medfieldweather.com

High Low Average
Temperature 21.8°F-5.7°C 4.2°F-15.4°C 11.6°F-11.3°C
Dew Point 20.1°F-6.6°C -0.9°F-18.3°C 5.9°F-14.5°C
Winds 19.6 mph 31.5 kmh 2.3 mph 3.7 kmh 9.0 mph W14.5 kmh W
Wind Gusts 19.6 mph31.5 kmh 1.2 mph1.9 kmh 9.0 mph14.5 kmh
Humidity 93% 55% 78%
Pressure 30.75 in1041.3 mb 29.45 in997.3 mb -
Precipitation 0.00 in0.0 mm - -
Hour Temp Dew Point Humidity Winds Wind Gusts Pressure Precip Precip Rate Daily Precip Total
12:00 AM 21.7°F-5.7°C 20.0°F-6.7°C 93% 9.2 mph W14.8 kmh W 8.1 mph13.0 kmh 30.28 in1025.4 mb - 0.00 in0.0 mm 0.00 in0.0 mm
12:10 AM 21.8°F-5.7°C 20.1°F-6.6°C 93% 6.9 mph NW11.1 kmh NW 5.8 mph9.3 kmh 30.29 in1025.7 mb - 0.00 in0.0 mm 0.00 in0.0 mm
12:20 AM 21.6°F-5.8°C 19.9°F-6.7°C 93% 6.9 mph W11.1 kmh W 5.8 mph9.3 kmh 30.29 in1025.7 mb - 0.00 in0.0 mm 0.00 in0.0 mm
12:30 AM 21.4°F-5.9°C 19.7°F-6.8°C 93% 6.9 mph W11.1 kmh W 8.1 mph13.0 kmh 30.29 in1025.7 mb - 0.00 in0.0 mm 0.00 in0.0 mm
12:40 AM 21.3°F-5.9°C 19.6°F-6.9°C 93% 4.6 mph W7.4 kmh W 5.8 mph9.3 kmh 30.31 in1026.4 mb - 0.00 in0.0 mm 0.00 in0.0 mm
12:50 AM 21.0°F-6.1°C 19.3°F-7.1°C 93% 8.1 mph WSW13.0 kmh WSW 8.1 mph13.0 kmh 30.31 in1026.4 mb - 0.00 in0.0 mm 0.00 in0.0 mm
01:00 AM 20.8°F-6.2°C 19.1°F-7.2°C 93% 8.1 mph W13.0 kmh W 8.1 mph13.0 kmh 30.31 in1026.4 mb - 0.00 in0.0 mm 0.00 in0.0 mm
01:10 AM 20.8°F-6.2°C 19.1°F-7.2°C 93% 13.8 mph WSW22.2 kmh WSW 11.5 mph18.5 kmh 30.31 in1026.4 mb - 0.00 in0.0 mm 0.00 in0.0 mm
01:20 AM 20.8°F-6.2°C 19.1°F-7.2°C 93% 3.5 mph NW5.6 kmh NW 9.2 mph14.8 kmh 30.32 in1026.8 mb - 0.00 in0.0 mm 0.00 in0.0 mm
01:30 AM 20.8°F-6.2°C 19.1°F-7.2°C 93% 13.8 mph NW22.2 kmh NW 11.5 mph18.5 kmh 30.33 in1027.1 mb - 0.00 in0.0 mm 0.00 in0.0 mm
01:40 AM 20.7°F-6.3°C 19.0°F-7.2°C 93% 12.7 mph WNW20.4 kmh WNW 13.8 mph22.2 kmh 30.33 in1027.1 mb - 0.00 in0.0 mm 0.00 in0.0 mm
01:50 AM 20.6°F-6.3°C 18.9°F-7.3°C 93% 11.5 mph WSW18.5 kmh WSW 11.5 mph18.5 kmh 30.33 in1027.1 mb - 0.00 in0.0 mm 0.00 in0.0 mm
02:00 AM 20.5°F-6.4°C 18.8°F-7.3°C 93% 3.5 mph WNW5.6 kmh WNW 5.8 mph9.3 kmh 30.34 in1027.4 mb - 0.00 in0.0 mm 0.00 in0.0 mm
02:10 AM 20.5°F-6.4°C 18.8°F-7.3°C 93% 13.8 mph W22.2 kmh W 13.8 mph22.2 kmh 30.34 in1027.4 mb - 0.00 in0.0 mm 0.00 in0.0 mm
02:20 AM 20.4°F-6.4°C 18.7°F-7.4°C 93% 2.3 mph WNW3.7 kmh WNW 2.3 mph3.7 kmh 30.35 in1027.8 mb - 0.00 in0.0 mm 0.00 in0.0 mm
02:30 AM 20.2°F-6.6°C 18.5°F-7.5°C 93% 8.1 mph WSW13.0 kmh WSW 9.2 mph14.8 kmh 30.35 in1027.8 mb - 0.00 in0.0 mm 0.00 in0.0 mm
02:40 AM 20.1°F-6.6°C 18.4°F-7.6°C 93% 4.6 mph SW7.4 kmh SW 5.8 mph9.3 kmh 30.36 in1028.1 mb - 0.00 in0.0 mm 0.00 in0.0 mm
02:50 AM 19.8°F-6.8°C 18.1°F-7.7°C 93% 8.1 mph WSW13.0 kmh WSW 5.8 mph9.3 kmh 30.36 in1028.1 mb - 0.00 in0.0 mm 0.00 in0.0 mm
03:00 AM 19.5°F-6.9°C 17.8°F-7.9°C 93% 4.6 mph WNW7.4 kmh WNW 2.3 mph3.7 kmh 30.36 in1028.1 mb - 0.00 in0.0 mm 0.00 in0.0 mm
03:10 AM 19.1°F-7.2°C 17.4°F-8.1°C 93% 3.5 mph SW5.6 kmh SW 8.1 mph13.0 kmh 30.35 in1027.8 mb - 0.00 in0.0 mm 0.00 in0.0 mm
03:20 AM 18.9°F-7.3°C 17.2°F-8.2°C 93% 4.6 mph W7.4 kmh W 2.3 mph3.7 kmh 30.37 in1028.4 mb - 0.00 in0.0 mm 0.00 in0.0 mm
03:30 AM 18.9°F-7.3°C 17.2°F-8.2°C 93% 9.2 mph NW14.8 kmh NW 8.1 mph13.0 kmh 30.37 in1028.4 mb - 0.00 in0.0 mm 0.00 in0.0 mm
03:40 AM 18.7°F-7.4°C 17.0°F-8.3°C 93% 2.3 mph W3.7 kmh W 2.3 mph3.7 kmh 30.37 in1028.4 mb - 0.00 in0.0 mm 0.00 in0.0 mm
03:50 AM 18.6°F-7.4°C 16.9°F-8.4°C 93% 3.5 mph NW5.6 kmh NW 2.3 mph3.7 kmh 30.37 in1028.4 mb - 0.00 in0.0 mm 0.00 in0.0 mm
04:00 AM 18.4°F-7.6°C 16.7°F-8.5°C 93% 11.5 mph WSW18.5 kmh WSW 9.2 mph14.8 kmh 30.37 in1028.4 mb - 0.00 in0.0 mm 0.00 in0.0 mm
04:10 AM 18.3°F-7.6°C 16.6°F-8.6°C 93% 5.8 mph WNW9.3 kmh WNW 2.3 mph3.7 kmh 30.38 in1028.8 mb - 0.00 in0.0 mm 0.00 in0.0 mm
04:20 AM 18.1°F-7.7°C 16.4°F-8.7°C 93% 9.2 mph WNW14.8 kmh WNW 9.2 mph14.8 kmh 30.39 in1029.1 mb - 0.00 in0.0 mm 0.00 in0.0 mm
04:30 AM 17.8°F-7.9°C 16.1°F-8.8°C 93% 4.6 mph W7.4 kmh W 3.5 mph5.6 kmh 30.39 in1029.1 mb - 0.00 in0.0 mm 0.00 in0.0 mm
04:40 AM 17.6°F-8.0°C 15.9°F-8.9°C 93% 5.8 mph WSW9.3 kmh WSW 3.5 mph5.6 kmh 30.39 in1029.1 mb - 0.00 in0.0 mm 0.00 in0.0 mm
04:50 AM 16.9°F-8.4°C 15.2°F-9.3°C 93% 5.8 mph W9.3 kmh W 5.8 mph9.3 kmh 30.39 in1029.1 mb - 0.00 in0.0 mm 0.00 in0.0 mm
05:00 AM 16.3°F-8.7°C 14.6°F-9.7°C 93% 3.5 mph N5.6 kmh N 9.2 mph14.8 kmh 30.41 in1029.8 mb - 0.00 in0.0 mm 0.00 in0.0 mm
05:10 AM 15.5°F-9.2°C 13.8°F-10.1°C 93% 6.9 mph WSW11.1 kmh WSW 5.8 mph9.3 kmh 30.42 in1030.1 mb - 0.00 in0.0 mm 0.00 in0.0 mm
05:20 AM 14.9°F-9.5°C 13.2°F-10.4°C 93% 10.4 mph WSW16.7 kmh WSW 9.2 mph14.8 kmh 30.42 in1030.1 mb - 0.00 in0.0 mm 0.00 in0.0 mm
05:30 AM 14.4°F-9.8°C 12.7°F-10.7°C 93% 3.5 mph W5.6 kmh W 2.3 mph3.7 kmh 30.43 in1030.5 mb - 0.00 in0.0 mm 0.00 in0.0 mm
05:40 AM 13.9°F-10.1°C 12.2°F-11.0°C 93% 4.6 mph NW7.4 kmh NW 9.2 mph14.8 kmh 30.43 in1030.5 mb - 0.00 in0.0 mm 0.00 in0.0 mm
05:50 AM 13.2°F-10.4°C 11.5°F-11.4°C 93% 4.6 mph E7.4 kmh E 1.2 mph1.9 kmh 30.44 in1030.8 mb - 0.00 in0.0 mm 0.00 in0.0 mm
06:00 AM 12.6°F-10.8°C 10.9°F-11.7°C 93% 6.9 mph WSW11.1 kmh WSW 10.4 mph16.7 kmh 30.44 in1030.8 mb - 0.00 in0.0 mm 0.00 in0.0 mm
06:10 AM 12.1°F-11.1°C 10.5°F-11.9°C 93% 5.8 mph SSW9.3 kmh SSW 12.7 mph20.4 kmh 30.45 in1031.2 mb - 0.00 in0.0 mm 0.00 in0.0 mm
06:20 AM 11.5°F-11.4°C 9.8°F-12.3°C 93% 4.6 mph W7.4 kmh W 5.8 mph9.3 kmh 30.45 in1031.2 mb - 0.00 in0.0 mm 0.00 in0.0 mm
06:30 AM 10.9°F-11.7°C 9.0°F-12.8°C 92% 6.9 mph WSW11.1 kmh WSW 8.1 mph13.0 kmh 30.46 in1031.5 mb - 0.00 in0.0 mm 0.00 in0.0 mm
06:40 AM 10.7°F-11.8°C 8.8°F-12.9°C 92% 9.2 mph WSW14.8 kmh WSW 9.2 mph14.8 kmh 30.46 in1031.5 mb - 0.00 in0.0 mm 0.00 in0.0 mm
06:50 AM 10.5°F-11.9°C 8.6°F-13.0°C 92% 10.4 mph NNW16.7 kmh NNW 8.1 mph13.0 kmh 30.47 in1031.8 mb - 0.00 in0.0 mm 0.00 in0.0 mm
07:00 AM 10.3°F-12.1°C 8.4°F-13.1°C 92% 5.8 mph SW9.3 kmh SW 5.8 mph9.3 kmh 30.47 in1031.8 mb - 0.00 in0.0 mm 0.00 in0.0 mm
07:10 AM 10.1°F-12.2°C 8.2°F-13.2°C 92% 8.1 mph WSW13.0 kmh WSW 3.5 mph5.6 kmh 30.49 in1032.5 mb - 0.00 in0.0 mm 0.00 in0.0 mm
07:20 AM 9.8°F-12.3°C 7.9°F-13.4°C 92% 11.5 mph S18.5 kmh S 16.1 mph25.9 kmh 30.49 in1032.5 mb - 0.00 in0.0 mm 0.00 in0.0 mm
07:30 AM 9.7°F-12.4°C 7.8°F-13.4°C 92% 8.1 mph NW13.0 kmh NW 9.2 mph14.8 kmh 30.49 in1032.5 mb - 0.00 in0.0 mm 0.00 in0.0 mm
07:40 AM 9.7°F-12.4°C 7.8°F-13.4°C 92% 8.1 mph WSW13.0 kmh WSW 8.1 mph13.0 kmh 30.49 in1032.5 mb - 0.00 in0.0 mm 0.00 in0.0 mm
07:50 AM 9.5°F-12.5°C 7.6°F-13.6°C 92% 5.8 mph WNW9.3 kmh WNW 6.9 mph11.1 kmh 30.49 in1032.5 mb - 0.00 in0.0 mm 0.00 in0.0 mm
08:00 AM 9.4°F-12.6°C 7.5°F-13.6°C 92% 5.8 mph WSW9.3 kmh WSW 6.9 mph11.1 kmh 30.49 in1032.5 mb - 0.00 in0.0 mm 0.00 in0.0 mm
08:10 AM 9.4°F-12.6°C 7.5°F-13.6°C 92% 12.7 mph NW20.4 kmh NW 3.5 mph5.6 kmh 30.46 in1031.5 mb - 0.00 in0.0 mm 0.00 in0.0 mm
08:20 AM 9.3°F-12.6°C 7.4°F-13.7°C 92% 6.9 mph NW11.1 kmh NW 5.8 mph9.3 kmh 30.44 in1030.8 mb - 0.00 in0.0 mm 0.00 in0.0 mm
08:30 AM 9.3°F-12.6°C 7.4°F-13.7°C 92% 11.5 mph WSW18.5 kmh WSW 11.5 mph18.5 kmh 30.41 in1029.8 mb - 0.00 in0.0 mm 0.00 in0.0 mm
08:40 AM 9.3°F-12.6°C 7.2°F-13.8°C 91% 8.1 mph WSW13.0 kmh WSW 10.4 mph16.7 kmh 30.38 in1028.8 mb - 0.00 in0.0 mm 0.00 in0.0 mm
08:50 AM 9.4°F-12.6°C 6.8°F-14.0°C 89% 4.6 mph WSW7.4 kmh WSW 13.8 mph22.2 kmh 30.34 in1027.4 mb - 0.00 in0.0 mm 0.00 in0.0 mm
09:00 AM 9.5°F-12.5°C 5.4°F-14.8°C 83% 11.5 mph NW18.5 kmh NW 9.2 mph14.8 kmh 30.28 in1025.4 mb - 0.00 in0.0 mm 0.00 in0.0 mm
09:10 AM 9.9°F-12.3°C 3.9°F-15.6°C 76% 6.9 mph WNW11.1 kmh WNW 8.1 mph13.0 kmh 29.96 in1014.6 mb - 0.00 in0.0 mm 0.00 in0.0 mm
09:20 AM 10.1°F-12.2°C 4.3°F-15.4°C 77% 5.8 mph SW9.3 kmh SW 8.1 mph13.0 kmh 29.90 in1012.5 mb - 0.00 in0.0 mm 0.00 in0.0 mm
09:30 AM 9.9°F-12.3°C 3.8°F-15.7°C 76% 8.1 mph WSW13.0 kmh WSW 11.5 mph18.5 kmh 30.09 in1019.0 mb - 0.00 in0.0 mm 0.00 in0.0 mm
09:40 AM 9.7°F-12.4°C 3.7°F-15.7°C 76% 11.5 mph WSW18.5 kmh WSW 17.3 mph27.8 kmh 30.07 in1018.3 mb - 0.00 in0.0 mm 0.00 in0.0 mm
09:50 AM 10.3°F-12.1°C 1.5°F-16.9°C 67% 8.1 mph WNW13.0 kmh WNW 10.4 mph16.7 kmh 29.97 in1014.9 mb - 0.00 in0.0 mm 0.00 in0.0 mm
10:00 AM 10.8°F-11.8°C 2.6°F-16.3°C 69% 6.9 mph WSW11.1 kmh WSW 9.2 mph14.8 kmh 29.91 in1012.9 mb - 0.00 in0.0 mm 0.00 in0.0 mm
10:10 AM 10.9°F-11.7°C 3.3°F-15.9°C 71% 3.5 mph ENE5.6 kmh ENE 6.9 mph11.1 kmh 29.97 in1014.9 mb - 0.00 in0.0 mm 0.00 in0.0 mm
10:20 AM 11.6°F-11.3°C 0.4°F-17.6°C 60% 2.3 mph NE3.7 kmh NE 2.3 mph3.7 kmh 29.45 in997.3 mb - 0.00 in0.0 mm 0.00 in0.0 mm
10:30 AM 12.3°F-10.9°C 0.7°F-17.4°C 59% 10.4 mph W16.7 kmh W 13.8 mph22.2 kmh 29.45 in997.3 mb - 0.00 in0.0 mm 0.00 in0.0 mm
10:40 AM 12.7°F-10.7°C 0.7°F-17.4°C 58% 10.4 mph W16.7 kmh W 9.2 mph14.8 kmh 29.45 in997.3 mb - 0.00 in0.0 mm 0.00 in0.0 mm
10:50 AM 13.1°F-10.5°C 1.1°F-17.2°C 58% 16.1 mph WSW25.9 kmh WSW 16.1 mph25.9 kmh 29.45 in997.3 mb - 0.00 in0.0 mm 0.00 in0.0 mm
11:00 AM 12.9°F-10.6°C 0.1°F-17.7°C 56% 6.9 mph SW11.1 kmh SW 11.5 mph18.5 kmh 29.45 in997.3 mb - 0.00 in0.0 mm 0.00 in0.0 mm
11:10 AM 13.2°F-10.4°C 0.0°F-17.8°C 55% 10.4 mph SW16.7 kmh SW 10.4 mph16.7 kmh 29.48 in998.3 mb - 0.00 in0.0 mm 0.00 in0.0 mm
11:20 AM 13.5°F-10.3°C 0.7°F-17.4°C 56% 15.0 mph SW24.1 kmh SW 11.5 mph18.5 kmh 29.59 in1002.0 mb - 0.00 in0.0 mm 0.00 in0.0 mm
11:30 AM 13.3°F-10.4°C 1.3°F-17.1°C 58% 12.7 mph SW20.4 kmh SW 13.8 mph22.2 kmh 29.73 in1006.8 mb - 0.00 in0.0 mm 0.00 in0.0 mm
11:40 AM 13.6°F-10.2°C 1.9°F-16.7°C 59% 3.5 mph W5.6 kmh W 8.1 mph13.0 kmh 29.79 in1008.8 mb - 0.00 in0.0 mm 0.00 in0.0 mm
11:50 AM 13.7°F-10.2°C 2.0°F-16.7°C 59% 5.8 mph N9.3 kmh N 5.8 mph9.3 kmh 29.80 in1009.1 mb - 0.00 in0.0 mm 0.00 in0.0 mm
12:00 PM 13.9°F-10.1°C 1.8°F-16.8°C 58% 11.5 mph N18.5 kmh N 11.5 mph18.5 kmh 29.79 in1008.8 mb - 0.00 in0.0 mm 0.00 in0.0 mm
12:10 PM 13.5°F-10.3°C 1.5°F-16.9°C 58% 8.1 mph N13.0 kmh N 8.1 mph13.0 kmh 29.81 in1009.5 mb - 0.00 in0.0 mm 0.00 in0.0 mm
12:20 PM 12.9°F-10.6°C -0.2°F-17.9°C 55% 10.4 mph SW16.7 kmh SW 9.2 mph14.8 kmh 29.80 in1009.1 mb - 0.00 in0.0 mm 0.00 in0.0 mm
12:30 PM 13.2°F-10.4°C 0.0°F-17.8°C 55% 5.8 mph WSW9.3 kmh WSW 5.8 mph9.3 kmh 29.66 in1004.4 mb - 0.00 in0.0 mm 0.00 in0.0 mm
12:40 PM 12.7°F-10.7°C -0.4°F-18.0°C 55% 19.6 mph WSW31.5 kmh WSW 18.4 mph29.6 kmh 29.66 in1004.4 mb - 0.00 in0.0 mm 0.00 in0.0 mm
12:50 PM 12.6°F-10.8°C 0.6°F-17.4°C 58% 15.0 mph WNW24.1 kmh WNW 16.1 mph25.9 kmh 29.75 in1007.5 mb - 0.00 in0.0 mm 0.00 in0.0 mm
01:00 PM 12.5°F-10.8°C 0.9°F-17.3°C 59% 10.4 mph SW16.7 kmh SW 9.2 mph14.8 kmh 29.81 in1009.5 mb - 0.00 in0.0 mm 0.00 in0.0 mm
01:10 PM 12.3°F-10.9°C 1.4°F-17.0°C 61% 8.1 mph NW13.0 kmh NW 11.5 mph18.5 kmh 29.83 in1010.2 mb - 0.00 in0.0 mm 0.00 in0.0 mm
01:20 PM 12.1°F-11.1°C 1.6°F-16.9°C 62% 9.2 mph NNW14.8 kmh NNW 18.4 mph29.6 kmh 29.84 in1010.5 mb - 0.00 in0.0 mm 0.00 in0.0 mm
01:30 PM 11.7°F-11.3°C 1.2°F-17.1°C 62% 4.6 mph WSW7.4 kmh WSW 5.8 mph9.3 kmh 29.85 in1010.8 mb - 0.00 in0.0 mm 0.00 in0.0 mm
01:40 PM 11.9°F-11.2°C 0.3°F-17.6°C 59% 8.1 mph SW13.0 kmh SW 8.1 mph13.0 kmh 29.85 in1010.8 mb - 0.00 in0.0 mm 0.00 in0.0 mm
01:50 PM 11.9°F-11.2°C 0.7°F-17.4°C 60% 6.9 mph NW11.1 kmh NW 5.8 mph9.3 kmh 29.86 in1011.2 mb - 0.00 in0.0 mm 0.00 in0.0 mm
02:00 PM 11.9°F-11.2°C 1.0°F-17.2°C 61% 12.7 mph WSW20.4 kmh WSW 11.5 mph18.5 kmh 29.87 in1011.5 mb - 0.00 in0.0 mm 0.00 in0.0 mm
02:10 PM 11.9°F-11.2°C 1.4°F-17.0°C 62% 6.9 mph W11.1 kmh W 13.8 mph22.2 kmh 29.96 in1014.6 mb - 0.00 in0.0 mm 0.00 in0.0 mm
02:20 PM 11.7°F-11.3°C 1.5°F-16.9°C 63% 16.1 mph WNW25.9 kmh WNW 13.8 mph22.2 kmh 30.00 in1015.9 mb - 0.00 in0.0 mm 0.00 in0.0 mm
02:30 PM 11.7°F-11.3°C 1.5°F-16.9°C 63% 6.9 mph NNW11.1 kmh NNW 5.8 mph9.3 kmh 30.01 in1016.3 mb - 0.00 in0.0 mm 0.00 in0.0 mm
02:40 PM 11.6°F-11.3°C 1.4°F-17.0°C 63% 8.1 mph NW13.0 kmh NW 8.1 mph13.0 kmh 30.04 in1017.3 mb - 0.00 in0.0 mm 0.00 in0.0 mm
02:50 PM 11.0°F-11.7°C 1.1°F-17.2°C 64% 8.1 mph N13.0 kmh N 6.9 mph11.1 kmh 30.04 in1017.3 mb - 0.00 in0.0 mm 0.00 in0.0 mm
03:00 PM 10.8°F-11.8°C 1.0°F-17.2°C 64% 16.1 mph W25.9 kmh W 16.1 mph25.9 kmh 30.06 in1017.9 mb - 0.00 in0.0 mm 0.00 in0.0 mm
03:10 PM 10.8°F-11.8°C 0.7°F-17.4°C 63% 12.7 mph W20.4 kmh W 10.4 mph16.7 kmh 30.06 in1017.9 mb - 0.00 in0.0 mm 0.00 in0.0 mm
03:20 PM 10.7°F-11.8°C 0.6°F-17.4°C 63% 8.1 mph NW13.0 kmh NW 16.1 mph25.9 kmh 30.06 in1017.9 mb - 0.00 in0.0 mm 0.00 in0.0 mm
03:30 PM 10.4°F-12.0°C 0.6°F-17.4°C 64% 16.1 mph SW25.9 kmh SW 12.7 mph20.4 kmh 30.05 in1017.6 mb - 0.00 in0.0 mm 0.00 in0.0 mm
03:40 PM 10.1°F-12.2°C 0.3°F-17.6°C 64% 19.6 mph WSW31.5 kmh WSW 17.3 mph27.8 kmh 30.10 in1019.3 mb - 0.00 in0.0 mm 0.00 in0.0 mm
03:50 PM 9.8°F-12.3°C 0.4°F-17.6°C 65% 9.2 mph W14.8 kmh W 9.2 mph14.8 kmh 30.12 in1020.0 mb - 0.00 in0.0 mm 0.00 in0.0 mm
04:00 PM 9.6°F-12.4°C 0.9°F-17.3°C 67% 6.9 mph WSW11.1 kmh WSW 12.7 mph20.4 kmh 30.13 in1020.3 mb - 0.00 in0.0 mm 0.00 in0.0 mm
04:10 PM 9.5°F-12.5°C 0.4°F-17.6°C 66% 17.3 mph WSW27.8 kmh WSW 18.4 mph29.6 kmh 30.16 in1021.3 mb - 0.00 in0.0 mm 0.00 in0.0 mm
04:20 PM 9.2°F-12.7°C 0.5°F-17.5°C 67% 15.0 mph WSW24.1 kmh WSW 16.1 mph25.9 kmh 30.18 in1022.0 mb - 0.00 in0.0 mm 0.00 in0.0 mm
04:30 PM 9.1°F-12.7°C 0.4°F-17.6°C 67% 9.2 mph WNW14.8 kmh WNW 10.4 mph16.7 kmh 30.19 in1022.4 mb - 0.00 in0.0 mm 0.00 in0.0 mm
04:40 PM 9.1°F-12.7°C 0.4°F-17.6°C 67% 9.2 mph WNW14.8 kmh WNW 10.4 mph16.7 kmh 30.19 in1022.4 mb - 0.00 in0.0 mm 0.00 in0.0 mm
04:50 PM 9.1°F-12.7°C 0.4°F-17.6°C 67% 9.2 mph WNW14.8 kmh WNW 10.4 mph16.7 kmh 30.19 in1022.4 mb - 0.00 in0.0 mm 0.00 in0.0 mm
05:00 PM 9.1°F-12.7°C 0.4°F-17.6°C 67% 9.2 mph WNW14.8 kmh WNW 10.4 mph16.7 kmh 30.19 in1022.4 mb - 0.00 in0.0 mm 0.00 in0.0 mm
05:10 PM 9.1°F-12.7°C 0.4°F-17.6°C 67% 9.2 mph WNW14.8 kmh WNW 10.4 mph16.7 kmh 30.19 in1022.4 mb - 0.00 in0.0 mm 0.00 in0.0 mm
05:20 PM 9.1°F-12.7°C 0.4°F-17.6°C 67% 9.2 mph WNW14.8 kmh WNW 10.4 mph16.7 kmh 30.19 in1022.4 mb - 0.00 in0.0 mm 0.00 in0.0 mm
05:30 PM 9.1°F-12.7°C 0.4°F-17.6°C 67% 9.2 mph WNW14.8 kmh WNW 10.4 mph16.7 kmh 30.19 in1022.4 mb - 0.00 in0.0 mm 0.00 in0.0 mm
05:40 PM 9.1°F-12.7°C 0.4°F-17.6°C 67% 9.2 mph WNW14.8 kmh WNW 10.4 mph16.7 kmh 30.19 in1022.4 mb - 0.00 in0.0 mm 0.00 in0.0 mm
05:50 PM 7.8°F-13.4°C -0.9°F-18.3°C 67% 11.5 mph SW18.5 kmh SW 11.5 mph18.5 kmh 30.36 in1028.1 mb - 0.00 in0.0 mm 0.00 in0.0 mm
06:00 PM 7.4°F-13.7°C -0.3°F-17.9°C 70% 11.5 mph NW18.5 kmh NW 11.5 mph18.5 kmh 30.38 in1028.8 mb - 0.00 in0.0 mm 0.00 in0.0 mm
06:10 PM 7.0°F-13.9°C -0.7°F-18.2°C 70% 6.9 mph NW11.1 kmh NW 8.1 mph13.0 kmh 30.40 in1029.5 mb - 0.00 in0.0 mm 0.00 in0.0 mm
06:20 PM 6.9°F-13.9°C -0.8°F-18.2°C 70% 4.6 mph WSW7.4 kmh WSW 5.8 mph9.3 kmh 30.41 in1029.8 mb - 0.00 in0.0 mm 0.00 in0.0 mm
06:30 PM 6.8°F-14.0°C -0.6°F-18.1°C 71% 3.5 mph WSW5.6 kmh WSW 5.8 mph9.3 kmh 30.43 in1030.5 mb - 0.00 in0.0 mm 0.00 in0.0 mm
06:40 PM 6.9°F-13.9°C -0.3°F-17.9°C 72% 6.9 mph SW11.1 kmh SW 9.2 mph14.8 kmh 30.44 in1030.8 mb - 0.00 in0.0 mm 0.00 in0.0 mm
06:50 PM 6.9°F-13.9°C -0.5°F-18.1°C 71% 8.1 mph NNW13.0 kmh NNW 19.6 mph31.5 kmh 30.47 in1031.8 mb - 0.00 in0.0 mm 0.00 in0.0 mm
07:00 PM 6.5°F-14.2°C -0.3°F-17.9°C 73% 12.7 mph W20.4 kmh W 11.5 mph18.5 kmh 30.47 in1031.8 mb - 0.00 in0.0 mm 0.00 in0.0 mm
07:10 PM 6.4°F-14.2°C -0.1°F-17.8°C 74% 10.4 mph SW16.7 kmh SW 8.1 mph13.0 kmh 30.49 in1032.5 mb - 0.00 in0.0 mm 0.00 in0.0 mm
07:20 PM 6.3°F-14.3°C -0.3°F-17.9°C 74% 6.9 mph WSW11.1 kmh WSW 10.4 mph16.7 kmh 30.51 in1033.2 mb - 0.00 in0.0 mm 0.00 in0.0 mm
07:30 PM 6.3°F-14.3°C -0.6°F-18.1°C 73% 16.1 mph WSW25.9 kmh WSW 11.5 mph18.5 kmh 30.52 in1033.5 mb - 0.00 in0.0 mm 0.00 in0.0 mm
07:40 PM 6.1°F-14.4°C -0.4°F-18.0°C 74% 5.8 mph WSW9.3 kmh WSW 6.9 mph11.1 kmh 30.53 in1033.9 mb - 0.00 in0.0 mm 0.00 in0.0 mm
07:50 PM 6.0°F-14.4°C 0.1°F-17.7°C 76% 5.8 mph WNW9.3 kmh WNW 5.8 mph9.3 kmh 30.55 in1034.5 mb - 0.00 in0.0 mm 0.00 in0.0 mm
08:00 PM 6.1°F-14.4°C -0.1°F-17.8°C 75% 8.1 mph WSW13.0 kmh WSW 5.8 mph9.3 kmh 30.57 in1035.2 mb - 0.00 in0.0 mm 0.00 in0.0 mm
08:10 PM 6.1°F-14.4°C 0.4°F-17.6°C 77% 16.1 mph WNW25.9 kmh WNW 12.7 mph20.4 kmh 30.57 in1035.2 mb - 0.00 in0.0 mm 0.00 in0.0 mm
08:20 PM 5.9°F-14.5°C 0.0°F-17.8°C 76% 3.5 mph W5.6 kmh W 3.5 mph5.6 kmh 30.59 in1035.9 mb - 0.00 in0.0 mm 0.00 in0.0 mm
08:30 PM 5.8°F-14.6°C 0.1°F-17.7°C 77% 10.4 mph NW16.7 kmh NW 5.8 mph9.3 kmh 30.61 in1036.6 mb - 0.00 in0.0 mm 0.00 in0.0 mm
08:40 PM 5.8°F-14.6°C 0.1°F-17.7°C 77% 10.4 mph NW16.7 kmh NW 9.2 mph14.8 kmh 30.62 in1036.9 mb - 0.00 in0.0 mm 0.00 in0.0 mm
08:50 PM 5.8°F-14.6°C 0.4°F-17.6°C 78% 10.4 mph NW16.7 kmh NW 8.1 mph13.0 kmh 30.63 in1037.3 mb - 0.00 in0.0 mm 0.00 in0.0 mm
09:00 PM 5.8°F-14.6°C 0.4°F-17.6°C 78% 12.7 mph WSW20.4 kmh WSW 9.2 mph14.8 kmh 30.65 in1037.9 mb - 0.00 in0.0 mm 0.00 in0.0 mm
09:10 PM 5.6°F-14.7°C 0.8°F-17.3°C 80% 13.8 mph WSW22.2 kmh WSW 12.7 mph20.4 kmh 30.65 in1037.9 mb - 0.00 in0.0 mm 0.00 in0.0 mm
09:20 PM 5.5°F-14.7°C 1.2°F-17.1°C 82% 15.0 mph W24.1 kmh W 13.8 mph22.2 kmh 30.66 in1038.3 mb - 0.00 in0.0 mm 0.00 in0.0 mm
09:30 PM 5.6°F-14.7°C 1.3°F-17.1°C 82% 9.2 mph W14.8 kmh W 8.1 mph13.0 kmh 30.67 in1038.6 mb - 0.00 in0.0 mm 0.00 in0.0 mm
09:40 PM 5.6°F-14.7°C 1.8°F-16.8°C 84% 9.2 mph SW14.8 kmh SW 11.5 mph18.5 kmh 30.68 in1038.9 mb - 0.00 in0.0 mm 0.00 in0.0 mm
09:50 PM 5.5°F-14.7°C 1.5°F-16.9°C 83% 10.4 mph SW16.7 kmh SW 9.2 mph14.8 kmh 30.69 in1039.3 mb - 0.00 in0.0 mm 0.00 in0.0 mm
10:00 PM 5.3°F-14.8°C 1.6°F-16.9°C 84% 8.1 mph WSW13.0 kmh WSW 8.1 mph13.0 kmh 30.70 in1039.6 mb - 0.00 in0.0 mm 0.00 in0.0 mm
10:10 PM 5.3°F-14.8°C 1.5°F-16.9°C 84% 17.3 mph WSW27.8 kmh WSW 13.8 mph22.2 kmh 30.71 in1040.0 mb - 0.00 in0.0 mm 0.00 in0.0 mm
10:20 PM 5.2°F-14.9°C 1.2°F-17.1°C 83% 13.8 mph WNW22.2 kmh WNW 18.4 mph29.6 kmh 30.71 in1040.0 mb - 0.00 in0.0 mm 0.00 in0.0 mm
10:30 PM 5.2°F-14.9°C 1.1°F-17.2°C 83% 8.1 mph WNW13.0 kmh WNW 10.4 mph16.7 kmh 30.72 in1040.3 mb - 0.00 in0.0 mm 0.00 in0.0 mm
10:40 PM 5.1°F-14.9°C 1.1°F-17.2°C 83% 10.4 mph WSW16.7 kmh WSW 8.1 mph13.0 kmh 30.73 in1040.6 mb - 0.00 in0.0 mm 0.00 in0.0 mm
10:50 PM 4.9°F-15.1°C 1.1°F-17.2°C 84% 4.6 mph NW7.4 kmh NW 12.7 mph20.4 kmh 30.73 in1040.6 mb - 0.00 in0.0 mm 0.00 in0.0 mm
11:00 PM 4.8°F-15.1°C 1.0°F-17.2°C 84% 5.8 mph WSW9.3 kmh WSW 5.8 mph9.3 kmh 30.74 in1041.0 mb - 0.00 in0.0 mm 0.00 in0.0 mm
11:10 PM 4.7°F-15.2°C 0.9°F-17.3°C 84% 10.4 mph WSW16.7 kmh WSW 8.1 mph13.0 kmh 30.74 in1041.0 mb - 0.00 in0.0 mm 0.00 in0.0 mm
11:20 PM 4.5°F-15.3°C 1.0°F-17.2°C 85% 12.7 mph WNW20.4 kmh WNW 9.2 mph14.8 kmh 30.74 in1041.0 mb - 0.00 in0.0 mm 0.00 in0.0 mm
11:30 PM 4.6°F-15.2°C 1.1°F-17.2°C 85% 10.4 mph WSW16.7 kmh WSW 11.5 mph18.5 kmh 30.74 in1041.0 mb - 0.00 in0.0 mm 0.00 in0.0 mm
11:40 PM 4.4°F-15.3°C 1.1°F-17.2°C 86% 6.9 mph SSE11.1 kmh SSE 5.8 mph9.3 kmh 30.75 in1041.3 mb - 0.00 in0.0 mm 0.00 in0.0 mm
11:50 PM 4.2°F-15.4°C 1.2°F-17.1°C 87% 10.4 mph SW16.7 kmh SW 11.5 mph18.5 kmh 30.75 in1041.3 mb - 0.00 in0.0 mm 0.00 in0.0 mm